sensor_id;sensor_type;location;lat;lon;timestamp;pressure;altitude;pressure_sealevel;temperature;humidity
48800;BME280;34611;47.964;7.982;2023-04-10T00:00:17;97242.69;;;10.43;53.62
48800;BME280;34611;47.964;7.982;2023-04-10T00:07:17;97246.25;;;10.42;53.73
48800;BME280;34611;47.964;7.982;2023-04-10T00:14:20;97245.28;;;10.43;53.62
48800;BME280;34611;47.964;7.982;2023-04-10T00:21:22;97244.47;;;10.43;53.56
48800;BME280;34611;47.964;7.982;2023-04-10T00:28:22;97243.66;;;10.42;53.65
48800;BME280;34611;47.964;7.982;2023-04-10T00:35:22;97239.25;;;10.43;53.75
48800;BME280;34611;47.964;7.982;2023-04-10T00:42:23;97230.66;;;10.42;53.80
48800;BME280;34611;47.964;7.982;2023-04-10T00:49:23;97223.69;;;10.43;53.81
48800;BME280;34611;47.964;7.982;2023-04-10T00:56:23;97219.28;;;10.43;53.66
48800;BME280;34611;47.964;7.982;2023-04-10T01:03:23;97211.63;;;10.42;53.70
48800;BME280;34611;47.964;7.982;2023-04-10T01:17:49;97208.91;;;10.43;53.68
48800;BME280;34611;47.964;7.982;2023-04-10T01:32:09;97209.84;;;10.42;53.86
48800;BME280;34611;47.964;7.982;2023-04-10T01:39:10;97214.09;;;10.43;53.71
48800;BME280;34611;47.964;7.982;2023-04-10T01:46:11;97211.63;;;10.42;53.74
48800;BME280;34611;47.964;7.982;2023-04-10T01:53:12;97213.38;;;10.41;53.89
48800;BME280;34611;47.964;7.982;2023-04-10T02:00:12;97202.06;;;10.42;53.67
48800;BME280;34611;47.964;7.982;2023-04-10T02:07:18;97200.28;;;10.43;53.84
48800;BME280;34611;47.964;7.982;2023-04-10T02:14:21;97200.41;;;10.41;53.63
48800;BME280;34611;47.964;7.982;2023-04-10T02:21:22;97216.84;;;10.42;53.75
48800;BME280;34611;47.964;7.982;2023-04-10T02:28:23;97216.69;;;10.43;53.70
48800;BME280;34611;47.964;7.982;2023-04-10T02:35:23;97199.47;;;10.42;53.86
48800;BME280;34611;47.964;7.982;2023-04-10T02:42:23;97194.25;;;10.42;53.70
48800;BME280;34611;47.964;7.982;2023-04-10T02:49:25;97202.06;;;10.42;53.71
48800;BME280;34611;47.964;7.982;2023-04-10T02:56:26;97197.78;;;10.41;53.87
48800;BME280;34611;47.964;7.982;2023-04-10T03:03:26;97195.19;;;10.41;53.62
48800;BME280;34611;47.964;7.982;2023-04-10T03:10:28;97194.25;;;10.42;53.87
48800;BME280;34611;47.964;7.982;2023-04-10T03:17:29;97183.88;;;10.42;53.76
48800;BME280;34611;47.964;7.982;2023-04-10T03:24:29;97168.28;;;10.42;53.90
48800;BME280;34611;47.964;7.982;2023-04-10T03:31:30;97154.47;;;10.42;53.88
48800;BME280;34611;47.964;7.982;2023-04-10T03:38:34;97142.41;;;10.41;53.82
48800;BME280;34611;47.964;7.982;2023-04-10T03:45:34;97138.03;;;10.41;53.72
48800;BME280;34611;47.964;7.982;2023-04-10T03:52:36;97144.06;;;10.42;53.70
48800;BME280;34611;47.964;7.982;2023-04-10T03:59:37;97140.63;;;10.41;53.88
48800;BME280;34611;47.964;7.982;2023-04-10T04:06:39;97132.81;;;10.41;53.68
48800;BME280;34611;47.964;7.982;2023-04-10T04:13:58;97144.06;;;10.42;53.78
48800;BME280;34611;47.964;7.982;2023-04-10T04:21:14;97148.41;;;10.41;53.89
48800;BME280;34611;47.964;7.982;2023-04-10T04:28:33;97151.00;;;10.41;53.92
48800;BME280;34611;47.964;7.982;2023-04-10T04:36:00;97148.41;;;10.41;53.74
48800;BME280;34611;47.964;7.982;2023-04-10T04:43:12;97143.22;;;10.41;53.93
48800;BME280;34611;47.964;7.982;2023-04-10T04:50:29;97144.06;;;10.42;53.67
48800;BME280;34611;47.964;7.982;2023-04-10T04:57:45;97148.41;;;10.41;53.92
48800;BME280;34611;47.964;7.982;2023-04-10T05:05:04;97144.88;;;10.42;53.77
48800;BME280;34611;47.964;7.982;2023-04-10T05:12:17;97142.28;;;10.42;53.63
48800;BME280;34611;47.964;7.982;2023-04-10T05:19:31;97151.00;;;10.41;53.66
48800;BME280;34611;47.964;7.982;2023-04-10T05:26:58;97148.41;;;10.41;54.11
48800;BME280;34611;47.964;7.982;2023-04-10T05:34:16;97149.28;;;10.42;53.64
48800;BME280;34611;47.964;7.982;2023-04-10T05:41:42;97142.41;;;10.41;53.71
48800;BME280;34611;47.964;7.982;2023-04-10T05:49:08;97140.63;;;10.41;53.88
48800;BME280;34611;47.964;7.982;2023-04-10T05:56:31;97143.22;;;10.41;53.78
48800;BME280;34611;47.964;7.982;2023-04-10T06:04:01;97143.22;;;10.41;53.88
48800;BME280;34611;47.964;7.982;2023-04-10T06:11:02;97144.19;;;10.40;53.92
48800;BME280;34611;47.964;7.982;2023-04-10T06:18:05;97139.91;;;10.39;54.02
48800;BME280;34611;47.964;7.982;2023-04-10T06:25:05;97142.41;;;10.41;53.74
48800;BME280;34611;47.964;7.982;2023-04-10T06:32:06;97142.41;;;10.41;53.89
48800;BME280;34611;47.964;7.982;2023-04-10T06:39:10;97141.47;;;10.42;53.91
48800;BME280;34611;47.964;7.982;2023-04-10T06:46:10;97145.81;;;10.41;53.90
48800;BME280;34611;47.964;7.982;2023-04-10T06:53:11;97144.88;;;10.42;53.90
48800;BME280;34611;47.964;7.982;2023-04-10T07:00:11;97132.81;;;10.41;53.92
48800;BME280;34611;47.964;7.982;2023-04-10T07:07:11;97127.63;;;10.41;53.89
48800;BME280;34611;47.964;7.982;2023-04-10T07:14:12;97127.63;;;10.41;53.92
48800;BME280;34611;47.964;7.982;2023-04-10T07:21:12;97128.47;;;10.42;53.89
48800;BME280;34611;47.964;7.982;2023-04-10T07:28:12;97130.22;;;10.41;53.67
48800;BME280;34611;47.964;7.982;2023-04-10T07:35:13;97137.19;;;10.41;53.75
48800;BME280;34611;47.964;7.982;2023-04-10T07:42:13;97136.38;;;10.40;53.81
48800;BME280;34611;47.964;7.982;2023-04-10T07:49:13;97132.00;;;10.41;53.85
48800;BME280;34611;47.964;7.982;2023-04-10T07:56:14;97140.63;;;10.41;53.82
48800;BME280;34611;47.964;7.982;2023-04-10T08:03:15;97146.66;;;10.42;53.90
48800;BME280;34611;47.964;7.982;2023-04-10T08:10:15;97138.03;;;10.41;53.75
48800;BME280;34611;47.964;7.982;2023-04-10T08:17:15;97128.59;;;10.40;53.60
48800;BME280;34611;47.964;7.982;2023-04-10T08:24:16;97119.00;;;10.41;53.80
48800;BME280;34611;47.964;7.982;2023-04-10T08:31:19;97119.00;;;10.41;53.94
48800;BME280;34611;47.964;7.982;2023-04-10T08:38:19;97120.78;;;10.40;53.87
48800;BME280;34611;47.964;7.982;2023-04-10T08:45:22;97122.44;;;10.41;53.94
48800;BME280;34611;47.964;7.982;2023-04-10T08:52:23;97113.00;;;10.40;54.03
48800;BME280;34611;47.964;7.982;2023-04-10T08:59:24;97106.84;;;10.41;53.90
48800;BME280;34611;47.964;7.982;2023-04-10T09:06:24;97112.19;;;10.40;53.79
48800;BME280;34611;47.964;7.982;2023-04-10T09:13:35;97102.59;;;10.40;54.04
48800;BME280;34611;47.964;7.982;2023-04-10T09:20:36;97096.44;;;10.41;53.79
48800;BME280;34611;47.964;7.982;2023-04-10T09:27:36;97093.13;;;10.39;53.83
48800;BME280;34611;47.964;7.982;2023-04-10T09:34:53;97083.59;;;10.40;54.04
48800;BME280;34611;47.964;7.982;2023-04-10T09:41:55;97064.44;;;10.41;54.03
48800;BME280;34611;47.964;7.982;2023-04-10T09:48:55;97068.81;;;10.40;53.92
48800;BME280;34611;47.964;7.982;2023-04-10T09:55:56;97073.19;;;10.40;54.09
48800;BME280;34611;47.964;7.982;2023-04-10T10:02:57;97061.03;;;10.40;53.77
48800;BME280;34611;47.964;7.982;2023-04-10T10:09:58;97042.81;;;10.40;53.98
48800;BME280;34611;47.964;7.982;2023-04-10T10:17:00;97042.81;;;10.40;53.98
48800;BME280;34611;47.964;7.982;2023-04-10T10:24:01;97028.16;;;10.39;53.86
48800;BME280;34611;47.964;7.982;2023-04-10T10:31:02;97025.47;;;10.41;53.91
48800;BME280;34611;47.964;7.982;2023-04-10T10:38:03;97028.06;;;10.41;54.00
48800;BME280;34611;47.964;7.982;2023-04-10T11:06:49;97010.69;;;10.41;53.92
48800;BME280;34611;47.964;7.982;2023-04-10T11:21:09;97003.72;;;10.42;53.91
48800;BME280;34611;47.964;7.982;2023-04-10T11:28:18;97009.03;;;10.40;53.99
48800;BME280;34611;47.964;7.982;2023-04-10T11:35:30;96996.06;;;10.40;54.04
48800;BME280;34611;47.964;7.982;2023-04-10T11:42:31;96993.44;;;10.40;53.91
48800;BME280;34611;47.964;7.982;2023-04-10T11:49:31;96982.09;;;10.41;53.90
48800;BME280;34611;47.964;7.982;2023-04-10T11:56:33;97000.28;;;10.41;53.82
48800;BME280;34611;47.964;7.982;2023-04-10T12:03:37;97008.09;;;10.41;54.07
48800;BME280;34611;47.964;7.982;2023-04-10T12:10:45;97004.66;;;10.41;53.95
48800;BME280;34611;47.964;7.982;2023-04-10T12:17:46;96988.25;;;10.40;54.11
48800;BME280;34611;47.964;7.982;2023-04-10T12:24:47;96970.88;;;10.41;53.87
48800;BME280;34611;47.964;7.982;2023-04-10T12:31:47;96976.09;;;10.41;53.99
48800;BME280;34611;47.964;7.982;2023-04-10T12:38:47;96971.69;;;10.41;53.86
48800;BME280;34611;47.964;7.982;2023-04-10T12:45:47;96972.66;;;10.40;53.84
48800;BME280;34611;47.964;7.982;2023-04-10T12:53:01;96965.69;;;10.41;54.02
48800;BME280;34611;47.964;7.982;2023-04-10T13:00:02;96971.69;;;10.41;53.90
48800;BME280;34611;47.964;7.982;2023-04-10T13:07:03;96971.69;;;10.41;53.92
48800;BME280;34611;47.964;7.982;2023-04-10T13:14:03;96951.88;;;10.40;53.99
48800;BME280;34611;47.964;7.982;2023-04-10T13:21:03;96953.50;;;10.41;53.88
48800;BME280;34611;47.964;7.982;2023-04-10T13:28:04;96950.91;;;10.41;54.16
48800;BME280;34611;47.964;7.982;2023-04-10T13:35:09;96930.97;;;10.42;54.06
48800;BME280;34611;47.964;7.982;2023-04-10T13:42:09;96930.13;;;10.41;53.68
48800;BME280;34611;47.964;7.982;2023-04-10T13:49:09;96914.53;;;10.41;54.12
48800;BME280;34611;47.964;7.982;2023-04-10T13:56:09;96905.91;;;10.41;54.10
48800;BME280;34611;47.964;7.982;2023-04-10T14:03:10;96898.94;;;10.41;54.03
48800;BME280;34611;47.964;7.982;2023-04-10T14:10:11;96888.53;;;10.41;54.00
48800;BME280;34611;47.964;7.982;2023-04-10T14:17:11;96886.09;;;10.40;53.82
48800;BME280;34611;47.964;7.982;2023-04-10T14:24:11;96878.16;;;10.41;54.09
48800;BME280;34611;47.964;7.982;2023-04-10T14:31:12;96873.78;;;10.42;53.97
48800;BME280;34611;47.964;7.982;2023-04-10T14:38:12;96867.75;;;10.41;54.03
48800;BME280;34611;47.964;7.982;2023-04-10T14:45:12;96874.63;;;10.42;54.18
48800;BME280;34611;47.964;7.982;2023-04-10T14:52:13;96868.72;;;10.40;54.18
48800;BME280;34611;47.964;7.982;2023-04-10T14:59:13;96867.75;;;10.41;54.09
48800;BME280;34611;47.964;7.982;2023-04-10T15:06:13;96857.34;;;10.41;54.08
48800;BME280;34611;47.964;7.982;2023-04-10T15:13:14;96843.44;;;10.42;54.17
48800;BME280;34611;47.964;7.982;2023-04-10T15:20:14;96837.41;;;10.42;54.12
48800;BME280;34611;47.964;7.982;2023-04-10T15:27:15;96832.22;;;10.42;53.91
48800;BME280;34611;47.964;7.982;2023-04-10T15:34:15;96818.25;;;10.43;54.10
48800;BME280;34611;47.964;7.982;2023-04-10T15:41:16;96810.59;;;10.41;53.98
48800;BME280;34611;47.964;7.982;2023-04-10T15:48:16;96807.97;;;10.41;54.01
48800;BME280;34611;47.964;7.982;2023-04-10T15:55:16;96807.97;;;10.41;54.09
48800;BME280;34611;47.964;7.982;2023-04-10T16:02:16;96807.03;;;10.42;54.15
48800;BME280;34611;47.964;7.982;2023-04-10T16:09:17;96804.44;;;10.42;53.93
48800;BME280;34611;47.964;7.982;2023-04-10T16:16:17;96785.44;;;10.42;53.98
48800;BME280;34611;47.964;7.982;2023-04-10T16:23:17;96781.06;;;10.42;54.13
48800;BME280;34611;47.964;7.982;2023-04-10T16:30:18;96795.00;;;10.41;53.96
48800;BME280;34611;47.964;7.982;2023-04-10T16:37:18;96789.66;;;10.43;54.00
48800;BME280;34611;47.964;7.982;2023-04-10T16:44:18;96781.06;;;10.42;54.17
48800;BME280;34611;47.964;7.982;2023-04-10T16:51:19;96774.19;;;10.41;53.96
48800;BME280;34611;47.964;7.982;2023-04-10T16:58:19;96776.81;;;10.41;54.10
48800;BME280;34611;47.964;7.982;2023-04-10T17:05:19;96786.25;;;10.42;54.10
48800;BME280;34611;47.964;7.982;2023-04-10T17:12:20;96776.81;;;10.41;54.09
48800;BME280;34611;47.964;7.982;2023-04-10T17:19:20;96772.44;;;10.42;54.02
48800;BME280;34611;47.964;7.982;2023-04-10T17:26:21;96770.66;;;10.42;54.21
48800;BME280;34611;47.964;7.982;2023-04-10T17:33:22;96765.47;;;10.42;54.17
48800;BME280;34611;47.964;7.982;2023-04-10T17:40:22;96763.69;;;10.43;54.22
48800;BME280;34611;47.964;7.982;2023-04-10T17:47:24;96768.06;;;10.42;54.02
48800;BME280;34611;47.964;7.982;2023-04-10T17:54:24;96781.06;;;10.42;54.05
48800;BME280;34611;47.964;7.982;2023-04-10T18:01:24;96781.06;;;10.42;54.25
48800;BME280;34611;47.964;7.982;2023-04-10T18:08:28;96760.28;;;10.42;54.16
48800;BME280;34611;47.964;7.982;2023-04-10T18:15:29;96746.47;;;10.42;54.09
48800;BME280;34611;47.964;7.982;2023-04-10T18:22:30;96749.88;;;10.42;54.10
48800;BME280;34611;47.964;7.982;2023-04-10T18:29:30;96760.16;;;10.53;54.21
48800;BME280;34611;47.964;7.982;2023-04-10T18:36:30;96777.66;;;10.51;54.20
48800;BME280;34611;47.964;7.982;2023-04-10T18:43:30;96783.84;;;10.50;54.19
48800;BME280;34611;47.964;7.982;2023-04-10T18:50:35;96802.97;;;10.49;54.15
48800;BME280;34611;47.964;7.982;2023-04-10T18:57:37;96800.25;;;10.51;54.25
48800;BME280;34611;47.964;7.982;2023-04-10T19:04:37;96815.97;;;10.49;54.28
48800;BME280;34611;47.964;7.982;2023-04-10T19:11:37;96825.41;;;10.50;54.31
48800;BME280;34611;47.964;7.982;2023-04-10T19:18:38;96818.56;;;10.49;54.13
48800;BME280;34611;47.964;7.982;2023-04-10T19:25:38;96830.63;;;10.50;54.07
48800;BME280;34611;47.964;7.982;2023-04-10T19:32:38;96834.03;;;10.51;54.06
48800;BME280;34611;47.964;7.982;2023-04-10T19:39:39;96847.84;;;10.51;53.99
48800;BME280;34611;47.964;7.982;2023-04-10T19:46:39;96844.53;;;10.49;54.10
48800;BME280;34611;47.964;7.982;2023-04-10T19:53:40;96852.22;;;10.51;54.10
48800;BME280;34611;47.964;7.982;2023-04-10T20:00:40;96853.19;;;10.50;54.33
48800;BME280;34611;47.964;7.982;2023-04-10T20:07:40;96844.44;;;10.51;54.25
48800;BME280;34611;47.964;7.982;2023-04-10T20:14:41;96852.22;;;10.51;54.27
48800;BME280;34611;47.964;7.982;2023-04-10T20:21:44;96856.59;;;10.50;54.31
48800;BME280;34611;47.964;7.982;2023-04-10T20:28:44;96845.25;;;10.51;54.16
48800;BME280;34611;47.964;7.982;2023-04-10T20:35:44;96831.56;;;10.49;54.11
48800;BME280;34611;47.964;7.982;2023-04-10T20:42:45;96809.81;;;10.50;54.29
48800;BME280;34611;47.964;7.982;2023-04-10T20:49:45;96796.81;;;10.50;54.07
48800;BME280;34611;47.964;7.982;2023-04-10T20:56:45;96816.81;;;10.50;54.15
48800;BME280;34611;47.964;7.982;2023-04-10T21:03:46;96795.03;;;10.51;54.23
48800;BME280;34611;47.964;7.982;2023-04-10T21:10:46;96758.66;;;10.51;54.11
48800;BME280;34611;47.964;7.982;2023-04-10T21:17:46;96726.66;;;10.50;54.04
48800;BME280;34611;47.964;7.982;2023-04-10T21:24:47;96745.53;;;10.52;54.25
48800;BME280;34611;47.964;7.982;2023-04-10T21:31:47;96757.84;;;10.50;54.12
48800;BME280;34611;47.964;7.982;2023-04-10T21:38:47;96741.28;;;10.51;54.07
48800;BME280;34611;47.964;7.982;2023-04-10T21:45:47;96737.47;;;10.56;54.30
48800;BME280;34611;47.964;7.982;2023-04-10T21:52:48;96718.72;;;10.52;54.26
48800;BME280;34611;47.964;7.982;2023-04-10T21:59:48;96730.88;;;10.51;54.11
48800;BME280;34611;47.964;7.982;2023-04-10T22:06:48;96717.91;;;10.51;54.43
48800;BME280;34611;47.964;7.982;2023-04-10T22:13:48;96707.50;;;10.51;54.42
48800;BME280;34611;47.964;7.982;2023-04-10T22:20:49;96703.13;;;10.52;54.22
48800;BME280;34611;47.964;7.982;2023-04-10T22:27:49;96674.69;;;10.50;54.25
48800;BME280;34611;47.964;7.982;2023-04-10T22:34:49;96671.94;;;10.52;54.36
48800;BME280;34611;47.964;7.982;2023-04-10T22:41:50;96639.91;;;10.51;54.20
48800;BME280;34611;47.964;7.982;2023-04-10T22:48:50;96639.09;;;10.51;54.27
48800;BME280;34611;47.964;7.982;2023-04-10T22:55:50;96608.91;;;10.50;54.28
48800;BME280;34611;47.964;7.982;2023-04-10T23:02:50;96586.31;;;10.50;54.17
48800;BME280;34611;47.964;7.982;2023-04-10T23:09:51;96568.81;;;10.52;54.22
48800;BME280;34611;47.964;7.982;2023-04-10T23:16:51;96596.56;;;10.52;54.18
48800;BME280;34611;47.964;7.982;2023-04-10T23:23:51;96596.56;;;10.52;54.33
48800;BME280;34611;47.964;7.982;2023-04-10T23:30:51;96607.78;;;10.52;54.18
48800;BME280;34611;47.964;7.982;2023-04-10T23:37:52;96589.59;;;10.52;54.33
48800;BME280;34611;47.964;7.982;2023-04-10T23:44:52;96604.50;;;10.50;54.29
48800;BME280;34611;47.964;7.982;2023-04-10T23:51:52;96563.75;;;10.51;54.33
48800;BME280;34611;47.964;7.982;2023-04-10T23:58:56;96576.59;;;10.52;54.18
